Vohburg — V2OW7 — position and weather

sailwx.info

Track history (hours):
 
Tides and Currents Weather Stations Pressure Air Temp Water Temp Dewpoint Dewpoint Depression Visibility Wind Speed Wind Dir Waves Ship Positions

Vohburg

Last reported at 2014-Jul-29 08:22 UTC. Time now 2014-Jul-29 12:52 UTC.
Position N 55°38' E 020°07'.

Length 140 m; draft 7.4 m.

Type: Ship (hazmat cat A). MMSI: 305773000.

Date/timePositionNaut miles runAvg speedWind from/ knotsBaromVisibWave heightAir tempDewpointWater temp
2014-Jul-29 08:22N 55°38' E 020°07'1417.4
2014-Jul-29 07:33N 55°34' E 019°43'1717.3
2014-Jul-29 06:33N 55°30' E 019°13'1615.6
2014-Jul-29 05:33N 55°26' E 018°47'1717.1
2014-Jul-29 04:33N 55°21' E 018°18'1817.5
2014-Jul-29 03:33N 55°16' E 017°48'1717.2
2014-Jul-29 02:33N 55°11' E 017°20'1817.6
2014-Jul-29 01:33N 55°06' E 016°50'1717.3
2014-Jul-29 00:33N 54°60' E 016°22'1717.4
2014-Jul-28 23:33N 54°54' E 015°53'1717.5
2014-Jul-28 22:33N 54°48' E 015°25'1717.4
2014-Jul-28 21:33N 54°42' E 014°56'1817.6
2014-Jul-28 20:33N 54°36' E 014°28'1717.1
2014-Jul-28 19:33N 54°40' E 013°59'1717.4
2014-Jul-28 18:33N 54°43' E 013°30'1817.9
2014-Jul-28 17:33N 54°43' E 012°59'1716.9
2014-Jul-28 16:33N 54°39' E 012°30'1616.0
2014-Jul-28 15:33N 54°26' E 012°13'1716.5
2014-Jul-28 14:33N 54°25' E 011°45'1717.5
2014-Jul-28 13:33N 54°32' E 011°18'68 9.1
2014-Jul-28 06:05N 54°11' E 009°27'3 5.6
2014-Jul-28 05:33N 54°09' E 009°23'7 7.0
2014-Jul-28 04:33N 54°03' E 009°18'4 3.9
2014-Jul-28 03:31N 53°59' E 009°17'7 7.2
2014-Jul-28 02:33N 53°54' E 009°09'1 1.3
2014-Jul-28 01:33N 53°53' E 009°07'1413.6
2014-Jul-28 00:34N 53°52' E 008°44'1716.8
2014-Jul-27 23:33N 53°60' E 008°19'1615.5
2014-Jul-27 22:34N 53°57' E 007°52'6418.7
2014-Jul-27 19:08N 53°41' E 006°07'1118.6
2014-Jul-27 18:33N 53°38' E 005°50'1918.7
2014-Jul-27 17:34N 53°32' E 005°20'1918.7
2014-Jul-27 16:34N 53°25' E 004°51'5617.8
2014-Jul-27 13:23N 52°38' E 004°00'1417.3
2014-Jul-27 12:33N 52°24' E 003°53'1717.0
2014-Jul-27 11:33N 52°07' E 003°55'1615.7
2014-Jul-27 10:33N 51°56' E 004°13'8 7.8
2014-Jul-27 09:31N 51°53' E 004°25'0 0.0
2014-Jul-27 07:16N 51°53' E 004°25'0 0.0
2014-Jul-27 06:31N 51°53' E 004°25'0 0.0
2014-Jul-27 04:29N 51°53' E 004°25'0 0.0
2014-Jul-27 03:14N 51°53' E 004°25'0 0.0
2014-Jul-27 02:32N 51°53' E 004°25'0 0.0
2014-Jul-27 01:33N 51°53' E 004°25'0 0.0
2014-Jul-27 00:32N 51°53' E 004°25'0 0.0
2014-Jul-26 23:33N 51°53' E 004°25'0 0.0
2014-Jul-26 22:33N 51°53' E 004°25'0 0.0
2014-Jul-26 21:33N 51°53' E 004°25'0 0.0
2014-Jul-26 20:33N 51°53' E 004°25'0 0.0
2014-Jul-26 19:33N 51°53' E 004°25'0 0.0
2014-Jul-26 18:33N 51°53' E 004°25'0 0.0
2014-Jul-26 17:33N 51°53' E 004°25'0 0.0
2014-Jul-26 16:33N 51°53' E 004°25'0 0.0
2014-Jul-26 15:33N 51°53' E 004°25'0 0.1
2014-Jul-26 14:33N 51°53' E 004°25'0 0.0
2014-Jul-26 13:33N 51°53' E 004°25'0 0.0
2014-Jul-26 12:32N 51°53' E 004°25'4 3.7
2014-Jul-26 11:33N 51°54' E 004°19'1313.4
2014-Jul-26 10:33N 51°60' E 004°00'9017.9
2014-Jul-26 05:33N 52°47' E 001°55'1918.8
2014-Jul-26 04:33N 52°57' E 001°29'2417.8
2014-Jul-26 03:14N 53°08' E 000°55'1217.7
2014-Jul-26 02:32N 53°18' E 000°41'1818.6
2014-Jul-26 01:33N 53°35' E 000°32'1818.2
2014-Jul-26 00:33N 53°51' E 000°18'1717.5
2014-Jul-25 23:33N 54°07' E 000°05'1716.8
2014-Jul-25 22:33N 54°20' W 000°13'1616.5
2014-Jul-25 21:33N 54°32' W 000°32'1616.1
2014-Jul-25 20:33N 54°38' W 000°58'7 6.8
2014-Jul-25 19:33N 54°36' W 001°09'0 0.0
2014-Jul-25 18:27N 54°36' W 001°09'0 0.0
2014-Jul-25 17:27N 54°36' W 001°09'0 0.0
2014-Jul-25 16:30N 54°36' W 001°09'0 0.0
2014-Jul-25 15:30N 54°36' W 001°09'0 0.0
2014-Jul-25 14:33N 54°36' W 001°09'0 0.0
2014-Jul-25 13:30N 54°36' W 001°09'0 0.0
2014-Jul-25 12:33N 54°36' W 001°09'0 0.0
2014-Jul-25 11:33N 54°36' W 001°09'0 0.0
2014-Jul-25 10:33N 54°36' W 001°09'0 0.0
2014-Jul-25 09:30N 54°36' W 001°09'0 0.0
2014-Jul-25 08:31N 54°36' W 001°09'5 5.2
2014-Jul-25 07:32N 54°41' W 001°06'6 5.9
2014-Jul-25 06:33N 54°43' W 000°57'8 7.5
2014-Jul-25 05:33N 54°46' W 000°45'1616.0
2014-Jul-25 04:33N 54°53' W 000°20'1717.2
2014-Jul-25 03:33N 55°00' E 000°07'1717.3
2014-Jul-25 02:33N 55°07' E 000°35'1817.6
2014-Jul-25 01:33N 55°15' E 001°03'5817.7
2014-Jul-24 22:17N 55°41' E 002°34'11817.4
2014-Jul-24 15:31N 56°35' E 005°41'10717.4
2014-Jul-24 09:22N 57°22' E 008°38'2117.4
2014-Jul-24 08:10N 57°31' E 009°13'1117.2
2014-Jul-24 07:32N 57°36' E 009°31'1717.3
2014-Jul-24 06:33N 57°43' E 009°60'1717.3
2014-Jul-24 05:33N 57°47' E 010°31'1515.1
2014-Jul-24 04:33N 57°42' E 010°58'1615.9
2014-Jul-24 03:33N 57°31' E 011°19'1717.0
2014-Jul-24 02:33N 57°16' E 011°34'1817.5
2014-Jul-24 01:32N 56°59' E 011°45'1717.8
2014-Jul-24 00:33N 56°43' E 011°55'1817.6
2014-Jul-23 23:33N 56°27' E 012°09'1817.9
2014-Jul-23 22:33N 56°12' E 012°27'1717.3
2014-Jul-23 21:33N 55°57' E 012°43'1616.1
2014-Jul-23 20:33N 55°41' E 012°41'1211.8
2014-Jul-23 19:33N 55°30' E 012°43'1312.5
2014-Jul-23 18:33N 55°17' E 012°46'1717.1
2014-Jul-23 17:33N 55°15' E 013°16'3517.5
2014-Jul-23 15:33N 55°15' E 014°18'1717.3
2014-Jul-23 14:33N 55°27' E 014°40'1817.7
2014-Jul-23 13:33N 55°27' E 015°12'1817.6
2014-Jul-23 12:33N 55°28' E 015°43'1717.5
2014-Jul-23 11:33N 55°29' E 016°13'1817.8
2014-Jul-23 10:33N 55°29' E 016°45'1817.9
2014-Jul-23 09:33N 55°30' E 017°16'1817.7
2014-Jul-23 08:33N 55°32' E 017°47'1817.8
2014-Jul-23 07:33N 55°34' E 018°19'1817.7
2014-Jul-23 06:33N 55°37' E 018°50'1817.7
2014-Jul-23 05:33N 55°39' E 019°21'1817.6
2014-Jul-23 04:33N 55°41' E 019°52'1817.8
2014-Jul-23 03:33N 55°44' E 020°23'1817.7
2014-Jul-23 02:33N 55°45' E 020°54'10 9.8
2014-Jul-23 01:33N 55°39' E 021°09'1 0.5
2014-Jul-23 00:33N 55°39' E 021°10'0 0.0
2014-Jul-22 16:32N 55°39' E 021°10'7 3.4
2014-Jul-22 14:33N 55°44' E 021°02'1010.0
2014-Jul-22 13:33N 55°50' E 020°47'1817.6
2014-Jul-22 12:33N 56°07' E 020°42'1817.8
2014-Jul-22 11:33N 56°25' E 020°41'1817.8
2014-Jul-22 10:33N 56°43' E 020°41'10717.9
2014-Jul-22 04:33N 58°28' E 021°22'8816.3
2014-Jul-21 23:09N 59°37' E 023°08'1117.9
2014-Jul-21 22:33N 59°40' E 023°29'1917.9
2014-Jul-21 21:30N 59°45' E 024°05'3417.3
2014-Jul-21 19:31N 60°01' E 025°06'6 0.5
2014-Jul-21 07:33N 60°06' E 025°11'2110.5
2014-Jul-21 05:32N 59°56' E 025°49'1614.9
2014-Jul-21 04:27N 59°59' E 026°20'23 0.7
2014-Jul-19 21:27N 59°59' E 027°05'1213.3
2014-Jul-19 20:32N 59°59' E 026°41'4713.6
2014-Jul-19 17:04N 59°48' E 025°09'813.2
2014-Jul-19 16:26N 59°47' E 024°52'1112.9
2014-Jul-19 15:33N 59°44' E 024°31'1313.0
2014-Jul-19 14:33N 59°41' E 024°05'1413.6
2014-Jul-19 13:33N 59°36' E 023°41'  
Track history (hours):
 
Tides and Currents Weather Stations Pressure Air Temp Water Temp Dewpoint Dewpoint Depression Visibility Wind Speed Wind Dir Waves Ship Positions

Vohburg

Last reported at 2014-Jul-29 08:22 UTC. Time now 2014-Jul-29 12:52 UTC.
Position N 55°38' E 020°07'.

Length 140 m; draft 7.4 m.

Type: Ship (hazmat cat A). MMSI: 305773000.

Date/timePositionNaut miles runAvg speedWind from/ knotsBaromVisibWave heightAir tempDewpointWater temp
2014-Jul-29 08:22N 55°38' E 020°07'1417.4
2014-Jul-29 07:33N 55°34' E 019°43'1717.3
2014-Jul-29 06:33N 55°30' E 019°13'1615.6
2014-Jul-29 05:33N 55°26' E 018°47'1717.1
2014-Jul-29 04:33N 55°21' E 018°18'1817.5
2014-Jul-29 03:33N 55°16' E 017°48'1717.2
2014-Jul-29 02:33N 55°11' E 017°20'1817.6
2014-Jul-29 01:33N 55°06' E 016°50'1717.3
2014-Jul-29 00:33N 54°60' E 016°22'1717.4
2014-Jul-28 23:33N 54°54' E 015°53'1717.5
2014-Jul-28 22:33N 54°48' E 015°25'1717.4
2014-Jul-28 21:33N 54°42' E 014°56'1817.6
2014-Jul-28 20:33N 54°36' E 014°28'1717.1
2014-Jul-28 19:33N 54°40' E 013°59'1717.4
2014-Jul-28 18:33N 54°43' E 013°30'1817.9
2014-Jul-28 17:33N 54°43' E 012°59'1716.9
2014-Jul-28 16:33N 54°39' E 012°30'1616.0
2014-Jul-28 15:33N 54°26' E 012°13'1716.5
2014-Jul-28 14:33N 54°25' E 011°45'1717.5
2014-Jul-28 13:33N 54°32' E 011°18'68 9.1
2014-Jul-28 06:05N 54°11' E 009°27'3 5.6
2014-Jul-28 05:33N 54°09' E 009°23'7 7.0
2014-Jul-28 04:33N 54°03' E 009°18'4 3.9
2014-Jul-28 03:31N 53°59' E 009°17'7 7.2
2014-Jul-28 02:33N 53°54' E 009°09'1 1.3
2014-Jul-28 01:33N 53°53' E 009°07'1413.6
2014-Jul-28 00:34N 53°52' E 008°44'1716.8
2014-Jul-27 23:33N 53°60' E 008°19'1615.5
2014-Jul-27 22:34N 53°57' E 007°52'6418.7
2014-Jul-27 19:08N 53°41' E 006°07'1118.6
2014-Jul-27 18:33N 53°38' E 005°50'1918.7
2014-Jul-27 17:34N 53°32' E 005°20'1918.7
2014-Jul-27 16:34N 53°25' E 004°51'5617.8
2014-Jul-27 13:23N 52°38' E 004°00'1417.3
2014-Jul-27 12:33N 52°24' E 003°53'1717.0
2014-Jul-27 11:33N 52°07' E 003°55'1615.7
2014-Jul-27 10:33N 51°56' E 004°13'8 7.8
2014-Jul-27 09:31N 51°53' E 004°25'0 0.0
2014-Jul-27 07:16N 51°53' E 004°25'0 0.0
2014-Jul-27 06:31N 51°53' E 004°25'0 0.0
2014-Jul-27 04:29N 51°53' E 004°25'0 0.0
2014-Jul-27 03:14N 51°53' E 004°25'0 0.0
2014-Jul-27 02:32N 51°53' E 004°25'0 0.0
2014-Jul-27 01:33N 51°53' E 004°25'0 0.0
2014-Jul-27 00:32N 51°53' E 004°25'0 0.0
2014-Jul-26 23:33N 51°53' E 004°25'0 0.0
2014-Jul-26 22:33N 51°53' E 004°25'0 0.0
2014-Jul-26 21:33N 51°53' E 004°25'0 0.0
2014-Jul-26 20:33N 51°53' E 004°25'0 0.0
2014-Jul-26 19:33N 51°53' E 004°25'0 0.0
2014-Jul-26 18:33N 51°53' E 004°25'0 0.0
2014-Jul-26 17:33N 51°53' E 004°25'0 0.0
2014-Jul-26 16:33N 51°53' E 004°25'0 0.0
2014-Jul-26 15:33N 51°53' E 004°25'0 0.1
2014-Jul-26 14:33N 51°53' E 004°25'0 0.0
2014-Jul-26 13:33N 51°53' E 004°25'0 0.0
2014-Jul-26 12:32N 51°53' E 004°25'4 3.7
2014-Jul-26 11:33N 51°54' E 004°19'1313.4
2014-Jul-26 10:33N 51°60' E 004°00'9017.9
2014-Jul-26 05:33N 52°47' E 001°55'1918.8
2014-Jul-26 04:33N 52°57' E 001°29'2417.8
2014-Jul-26 03:14N 53°08' E 000°55'1217.7
2014-Jul-26 02:32N 53°18' E 000°41'1818.6
2014-Jul-26 01:33N 53°35' E 000°32'1818.2
2014-Jul-26 00:33N 53°51' E 000°18'1717.5
2014-Jul-25 23:33N 54°07' E 000°05'1716.8
2014-Jul-25 22:33N 54°20' W 000°13'1616.5
2014-Jul-25 21:33N 54°32' W 000°32'1616.1
2014-Jul-25 20:33N 54°38' W 000°58'7 6.8
2014-Jul-25 19:33N 54°36' W 001°09'0 0.0
2014-Jul-25 18:27N 54°36' W 001°09'0 0.0
2014-Jul-25 17:27N 54°36' W 001°09'0 0.0
2014-Jul-25 16:30N 54°36' W 001°09'0 0.0
2014-Jul-25 15:30N 54°36' W 001°09'0 0.0
2014-Jul-25 14:33N 54°36' W 001°09'0 0.0
2014-Jul-25 13:30N 54°36' W 001°09'0 0.0
2014-Jul-25 12:33N 54°36' W 001°09'0 0.0
2014-Jul-25 11:33N 54°36' W 001°09'0 0.0
2014-Jul-25 10:33N 54°36' W 001°09'0 0.0
2014-Jul-25 09:30N 54°36' W 001°09'0 0.0
2014-Jul-25 08:31N 54°36' W 001°09'5 5.2
2014-Jul-25 07:32N 54°41' W 001°06'6 5.9
2014-Jul-25 06:33N 54°43' W 000°57'8 7.5
2014-Jul-25 05:33N 54°46' W 000°45'1616.0
2014-Jul-25 04:33N 54°53' W 000°20'1717.2
2014-Jul-25 03:33N 55°00' E 000°07'1717.3
2014-Jul-25 02:33N 55°07' E 000°35'1817.6
2014-Jul-25 01:33N 55°15' E 001°03'5817.7
2014-Jul-24 22:17N 55°41' E 002°34'11817.4
2014-Jul-24 15:31N 56°35' E 005°41'10717.4
2014-Jul-24 09:22N 57°22' E 008°38'2117.4
2014-Jul-24 08:10N 57°31' E 009°13'1117.2
2014-Jul-24 07:32N 57°36' E 009°31'1717.3
2014-Jul-24 06:33N 57°43' E 009°60'1717.3
2014-Jul-24 05:33N 57°47' E 010°31'1515.1
2014-Jul-24 04:33N 57°42' E 010°58'1615.9
2014-Jul-24 03:33N 57°31' E 011°19'1717.0
2014-Jul-24 02:33N 57°16' E 011°34'1817.5
2014-Jul-24 01:32N 56°59' E 011°45'1717.8
2014-Jul-24 00:33N 56°43' E 011°55'1817.6
2014-Jul-23 23:33N 56°27' E 012°09'1817.9
2014-Jul-23 22:33N 56°12' E 012°27'1717.3
2014-Jul-23 21:33N 55°57' E 012°43'1616.1
2014-Jul-23 20:33N 55°41' E 012°41'1211.8
2014-Jul-23 19:33N 55°30' E 012°43'1312.5
2014-Jul-23 18:33N 55°17' E 012°46'1717.1
2014-Jul-23 17:33N 55°15' E 013°16'3517.5
2014-Jul-23 15:33N 55°15' E 014°18'1717.3
2014-Jul-23 14:33N 55°27' E 014°40'1817.7
2014-Jul-23 13:33N 55°27' E 015°12'1817.6
2014-Jul-23 12:33N 55°28' E 015°43'1717.5
2014-Jul-23 11:33N 55°29' E 016°13'1817.8
2014-Jul-23 10:33N 55°29' E 016°45'1817.9
2014-Jul-23 09:33N 55°30' E 017°16'1817.7
2014-Jul-23 08:33N 55°32' E 017°47'1817.8
2014-Jul-23 07:33N 55°34' E 018°19'1817.7
2014-Jul-23 06:33N 55°37' E 018°50'1817.7
2014-Jul-23 05:33N 55°39' E 019°21'1817.6
2014-Jul-23 04:33N 55°41' E 019°52'1817.8
2014-Jul-23 03:33N 55°44' E 020°23'1817.7
2014-Jul-23 02:33N 55°45' E 020°54'10 9.8
2014-Jul-23 01:33N 55°39' E 021°09'1 0.5
2014-Jul-23 00:33N 55°39' E 021°10'0 0.0
2014-Jul-22 16:32N 55°39' E 021°10'7 3.4
2014-Jul-22 14:33N 55°44' E 021°02'1010.0
2014-Jul-22 13:33N 55°50' E 020°47'1817.6
2014-Jul-22 12:33N 56°07' E 020°42'1817.8
2014-Jul-22 11:33N 56°25' E 020°41'1817.8
2014-Jul-22 10:33N 56°43' E 020°41'10717.9
2014-Jul-22 04:33N 58°28' E 021°22'8816.3
2014-Jul-21 23:09N 59°37' E 023°08'1117.9
2014-Jul-21 22:33N 59°40' E 023°29'1917.9
2014-Jul-21 21:30N 59°45' E 024°05'3417.3
2014-Jul-21 19:31N 60°01' E 025°06'6 0.5
2014-Jul-21 07:33N 60°06' E 025°11'2110.5
2014-Jul-21 05:32N 59°56' E 025°49'1614.9
2014-Jul-21 04:27N 59°59' E 026°20'23 0.7
2014-Jul-19 21:27N 59°59' E 027°05'1213.3
2014-Jul-19 20:32N 59°59' E 026°41'4713.6
2014-Jul-19 17:04N 59°48' E 025°09'813.2
2014-Jul-19 16:26N 59°47' E 024°52'1112.9
2014-Jul-19 15:33N 59°44' E 024°31'1313.0
2014-Jul-19 14:33N 59°41' E 024°05'1413.6
2014-Jul-19 13:33N 59°36' E 023°41'  

Dump ship's entire track history